sensor_id;sensor_type;location;lat;lon;timestamp;temperature;humidity
9537;DHT22;4807;48.024;11.726;2024-01-30T00:02:00;-2.10;99.90
9537;DHT22;4807;48.024;11.726;2024-01-30T00:05:09;-2.10;99.90
9537;DHT22;4807;48.024;11.726;2024-01-30T00:08:17;-2.10;99.90
9537;DHT22;4807;48.024;11.726;2024-01-30T00:11:25;-2.00;99.90
9537;DHT22;4807;48.024;11.726;2024-01-30T00:14:35;-2.00;99.90
9537;DHT22;4807;48.024;11.726;2024-01-30T00:17:45;-2.10;99.90
9537;DHT22;4807;48.024;11.726;2024-01-30T00:20:53;-2.20;99.90
9537;DHT22;4807;48.024;11.726;2024-01-30T00:24:02;-2.10;99.90
9537;DHT22;4807;48.024;11.726;2024-01-30T00:27:11;-2.10;99.90
9537;DHT22;4807;48.024;11.726;2024-01-30T00:30:20;-2.20;99.90
9537;DHT22;4807;48.024;11.726;2024-01-30T00:33:30;-2.30;99.90
9537;DHT22;4807;48.024;11.726;2024-01-30T00:36:38;-2.30;99.90
9537;DHT22;4807;48.024;11.726;2024-01-30T00:39:46;-2.20;99.90
9537;DHT22;4807;48.024;11.726;2024-01-30T00:42:55;-2.10;99.90
9537;DHT22;4807;48.024;11.726;2024-01-30T00:46:03;-2.00;99.90
9537;DHT22;4807;48.024;11.726;2024-01-30T00:49:13;-2.00;99.90
9537;DHT22;4807;48.024;11.726;2024-01-30T00:52:22;-2.00;99.90
9537;DHT22;4807;48.024;11.726;2024-01-30T00:55:30;-2.00;99.90
9537;DHT22;4807;48.024;11.726;2024-01-30T00:58:38;-2.00;99.90
9537;DHT22;4807;48.024;11.726;2024-01-30T01:01:47;-2.10;99.90
9537;DHT22;4807;48.024;11.726;2024-01-30T01:04:56;-2.10;99.90
9537;DHT22;4807;48.024;11.726;2024-01-30T01:08:05;-2.10;99.90
9537;DHT22;4807;48.024;11.726;2024-01-30T01:11:13;-2.20;99.90
9537;DHT22;4807;48.024;11.726;2024-01-30T01:14:22;-2.20;99.90
9537;DHT22;4807;48.024;11.726;2024-01-30T01:17:30;-2.00;99.90
9537;DHT22;4807;48.024;11.726;2024-01-30T01:20:39;-2.10;99.90
9537;DHT22;4807;48.024;11.726;2024-01-30T01:23:48;-2.20;99.90
9537;DHT22;4807;48.024;11.726;2024-01-30T01:26:56;-2.40;99.90
9537;DHT22;4807;48.024;11.726;2024-01-30T01:30:06;-2.40;99.90
9537;DHT22;4807;48.024;11.726;2024-01-30T01:33:16;-2.40;99.90
9537;DHT22;4807;48.024;11.726;2024-01-30T01:36:26;-2.40;99.90
9537;DHT22;4807;48.024;11.726;2024-01-30T01:39:34;-2.50;99.90
9537;DHT22;4807;48.024;11.726;2024-01-30T01:42:42;-4.30;99.90
9537;DHT22;4807;48.024;11.726;2024-01-30T01:45:50;-2.60;99.90
9537;DHT22;4807;48.024;11.726;2024-01-30T01:49:00;-2.50;99.90
9537;DHT22;4807;48.024;11.726;2024-01-30T01:52:12;-2.40;99.90
9537;DHT22;4807;48.024;11.726;2024-01-30T01:55:21;-2.40;99.90
9537;DHT22;4807;48.024;11.726;2024-01-30T01:58:31;-2.30;99.90
9537;DHT22;4807;48.024;11.726;2024-01-30T02:01:40;-2.30;99.90
9537;DHT22;4807;48.024;11.726;2024-01-30T02:04:50;-2.40;99.90
9537;DHT22;4807;48.024;11.726;2024-01-30T02:08:00;-2.40;99.90
9537;DHT22;4807;48.024;11.726;2024-01-30T02:11:08;-2.40;99.90
9537;DHT22;4807;48.024;11.726;2024-01-30T02:14:17;-2.30;99.90
9537;DHT22;4807;48.024;11.726;2024-01-30T02:17:26;-2.30;99.90
9537;DHT22;4807;48.024;11.726;2024-01-30T02:20:35;-2.20;99.90
9537;DHT22;4807;48.024;11.726;2024-01-30T02:23:46;-2.20;99.90
9537;DHT22;4807;48.024;11.726;2024-01-30T02:26:55;-2.00;99.90
9537;DHT22;4807;48.024;11.726;2024-01-30T02:30:04;-2.10;99.90
9537;DHT22;4807;48.024;11.726;2024-01-30T02:33:13;-2.20;99.90
9537;DHT22;4807;48.024;11.726;2024-01-30T02:36:21;-2.30;99.90
9537;DHT22;4807;48.024;11.726;2024-01-30T02:39:31;-2.50;99.90
9537;DHT22;4807;48.024;11.726;2024-01-30T02:42:39;-2.70;99.90
9537;DHT22;4807;48.024;11.726;2024-01-30T02:45:48;-2.70;99.90
9537;DHT22;4807;48.024;11.726;2024-01-30T02:48:56;-2.70;99.90
9537;DHT22;4807;48.024;11.726;2024-01-30T02:52:05;-2.70;99.90
9537;DHT22;4807;48.024;11.726;2024-01-30T02:55:15;-2.70;99.90
9537;DHT22;4807;48.024;11.726;2024-01-30T02:58:24;-2.70;99.90
9537;DHT22;4807;48.024;11.726;2024-01-30T03:01:42;-2.70;99.90
9537;DHT22;4807;48.024;11.726;2024-01-30T03:04:51;-2.80;99.90
9537;DHT22;4807;48.024;11.726;2024-01-30T03:08:00;-2.80;99.90
9537;DHT22;4807;48.024;11.726;2024-01-30T03:11:10;-2.70;99.90
9537;DHT22;4807;48.024;11.726;2024-01-30T03:14:18;-2.60;99.90
9537;DHT22;4807;48.024;11.726;2024-01-30T03:17:26;-2.60;99.90
9537;DHT22;4807;48.024;11.726;2024-01-30T03:20:36;-2.50;99.90
9537;DHT22;4807;48.024;11.726;2024-01-30T03:23:44;-2.50;99.90
9537;DHT22;4807;48.024;11.726;2024-01-30T03:26:54;-2.60;99.90
9537;DHT22;4807;48.024;11.726;2024-01-30T03:30:02;-2.60;99.90
9537;DHT22;4807;48.024;11.726;2024-01-30T03:33:11;-2.70;99.90
9537;DHT22;4807;48.024;11.726;2024-01-30T03:36:20;-2.70;99.90
9537;DHT22;4807;48.024;11.726;2024-01-30T03:39:28;-2.80;99.90
9537;DHT22;4807;48.024;11.726;2024-01-30T03:42:39;-2.70;99.90
9537;DHT22;4807;48.024;11.726;2024-01-30T03:45:47;-2.60;99.90
9537;DHT22;4807;48.024;11.726;2024-01-30T03:48:55;-2.70;99.90
9537;DHT22;4807;48.024;11.726;2024-01-30T03:52:03;-2.70;99.90
9537;DHT22;4807;48.024;11.726;2024-01-30T03:55:12;-2.70;99.90
9537;DHT22;4807;48.024;11.726;2024-01-30T03:58:22;-2.60;99.90
9537;DHT22;4807;48.024;11.726;2024-01-30T04:01:35;-2.60;99.90
9537;DHT22;4807;48.024;11.726;2024-01-30T04:04:43;-2.50;99.90
9537;DHT22;4807;48.024;11.726;2024-01-30T04:07:51;-2.50;99.90
9537;DHT22;4807;48.024;11.726;2024-01-30T04:11:03;-2.40;99.90
9537;DHT22;4807;48.024;11.726;2024-01-30T04:14:13;-2.50;99.90
9537;DHT22;4807;48.024;11.726;2024-01-30T04:17:24;-2.40;99.90
9537;DHT22;4807;48.024;11.726;2024-01-30T04:20:32;-2.50;99.90
9537;DHT22;4807;48.024;11.726;2024-01-30T04:23:41;-2.60;99.90
9537;DHT22;4807;48.024;11.726;2024-01-30T04:26:49;-2.70;99.90
9537;DHT22;4807;48.024;11.726;2024-01-30T04:30:00;-2.70;99.90
9537;DHT22;4807;48.024;11.726;2024-01-30T04:33:08;-2.80;99.90
9537;DHT22;4807;48.024;11.726;2024-01-30T04:36:18;-2.80;99.90
9537;DHT22;4807;48.024;11.726;2024-01-30T04:39:26;-2.70;99.90
9537;DHT22;4807;48.024;11.726;2024-01-30T04:42:35;-2.70;99.90
9537;DHT22;4807;48.024;11.726;2024-01-30T04:45:44;-2.70;99.90
9537;DHT22;4807;48.024;11.726;2024-01-30T04:48:53;-2.70;99.90
9537;DHT22;4807;48.024;11.726;2024-01-30T04:52:01;-2.70;99.90
9537;DHT22;4807;48.024;11.726;2024-01-30T04:55:10;-2.70;99.90
9537;DHT22;4807;48.024;11.726;2024-01-30T04:58:18;-2.70;99.90
9537;DHT22;4807;48.024;11.726;2024-01-30T05:01:28;-2.70;99.90
9537;DHT22;4807;48.024;11.726;2024-01-30T05:04:36;-2.60;99.90
9537;DHT22;4807;48.024;11.726;2024-01-30T05:07:46;-2.70;99.90
9537;DHT22;4807;48.024;11.726;2024-01-30T05:10:55;-2.60;99.90
9537;DHT22;4807;48.024;11.726;2024-01-30T05:14:04;-2.70;99.90
9537;DHT22;4807;48.024;11.726;2024-01-30T05:17:13;-2.70;99.90
9537;DHT22;4807;48.024;11.726;2024-01-30T05:20:22;-2.70;99.90
9537;DHT22;4807;48.024;11.726;2024-01-30T05:23:30;-2.70;99.90
9537;DHT22;4807;48.024;11.726;2024-01-30T05:26:38;-2.70;99.90
9537;DHT22;4807;48.024;11.726;2024-01-30T05:29:47;-2.70;99.90
9537;DHT22;4807;48.024;11.726;2024-01-30T05:32:56;-2.80;99.90
9537;DHT22;4807;48.024;11.726;2024-01-30T05:36:05;-2.70;99.90
9537;DHT22;4807;48.024;11.726;2024-01-30T05:39:13;-2.70;99.90
9537;DHT22;4807;48.024;11.726;2024-01-30T05:42:22;-2.70;99.90
9537;DHT22;4807;48.024;11.726;2024-01-30T05:45:34;-2.50;99.90
9537;DHT22;4807;48.024;11.726;2024-01-30T05:48:44;-2.40;99.90
9537;DHT22;4807;48.024;11.726;2024-01-30T05:51:53;-2.50;99.90
9537;DHT22;4807;48.024;11.726;2024-01-30T05:55:01;-2.60;99.90
9537;DHT22;4807;48.024;11.726;2024-01-30T05:58:10;-2.60;99.90
9537;DHT22;4807;48.024;11.726;2024-01-30T06:01:19;-2.70;99.90
9537;DHT22;4807;48.024;11.726;2024-01-30T06:04:29;-2.70;99.90
9537;DHT22;4807;48.024;11.726;2024-01-30T06:07:37;-2.70;99.90
9537;DHT22;4807;48.024;11.726;2024-01-30T06:10:46;-2.80;99.90
9537;DHT22;4807;48.024;11.726;2024-01-30T06:13:54;-2.80;99.90
9537;DHT22;4807;48.024;11.726;2024-01-30T06:17:03;-2.70;99.90
9537;DHT22;4807;48.024;11.726;2024-01-30T06:20:13;-2.60;99.90
9537;DHT22;4807;48.024;11.726;2024-01-30T06:23:21;-2.60;99.90
9537;DHT22;4807;48.024;11.726;2024-01-30T06:26:30;-2.70;99.90
9537;DHT22;4807;48.024;11.726;2024-01-30T06:29:38;-2.70;99.90
9537;DHT22;4807;48.024;11.726;2024-01-30T06:32:47;-2.70;99.90
9537;DHT22;4807;48.024;11.726;2024-01-30T06:35:57;-2.70;99.90
9537;DHT22;4807;48.024;11.726;2024-01-30T06:39:06;-2.70;99.90
9537;DHT22;4807;48.024;11.726;2024-01-30T06:42:15;-2.70;99.90
9537;DHT22;4807;48.024;11.726;2024-01-30T06:45:23;-2.70;99.90
9537;DHT22;4807;48.024;11.726;2024-01-30T06:48:32;-2.50;99.90
9537;DHT22;4807;48.024;11.726;2024-01-30T06:51:43;-2.50;99.90
9537;DHT22;4807;48.024;11.726;2024-01-30T06:54:51;-2.50;99.90
9537;DHT22;4807;48.024;11.726;2024-01-30T06:57:59;-2.20;99.90
9537;DHT22;4807;48.024;11.726;2024-01-30T07:01:08;-2.00;99.90
9537;DHT22;4807;48.024;11.726;2024-01-30T07:04:17;-2.10;99.90
9537;DHT22;4807;48.024;11.726;2024-01-30T07:07:26;-1.90;99.90
9537;DHT22;4807;48.024;11.726;2024-01-30T07:10:35;-1.90;99.90
9537;DHT22;4807;48.024;11.726;2024-01-30T07:13:44;-1.90;99.90
9537;DHT22;4807;48.024;11.726;2024-01-30T07:16:53;-1.90;99.90
9537;DHT22;4807;48.024;11.726;2024-01-30T07:20:02;-1.90;99.90
9537;DHT22;4807;48.024;11.726;2024-01-30T07:23:16;-1.90;99.90
9537;DHT22;4807;48.024;11.726;2024-01-30T07:26:27;-1.90;99.90
9537;DHT22;4807;48.024;11.726;2024-01-30T07:29:37;-1.80;99.90
9537;DHT22;4807;48.024;11.726;2024-01-30T07:32:47;-1.60;99.90
9537;DHT22;4807;48.024;11.726;2024-01-30T07:35:59;-1.50;99.90
9537;DHT22;4807;48.024;11.726;2024-01-30T07:39:10;-1.30;99.90
9537;DHT22;4807;48.024;11.726;2024-01-30T07:42:18;-1.10;99.90
9537;DHT22;4807;48.024;11.726;2024-01-30T07:45:28;-0.80;99.90
9537;DHT22;4807;48.024;11.726;2024-01-30T07:48:41;-0.60;99.90
9537;DHT22;4807;48.024;11.726;2024-01-30T07:51:50;-0.30;99.90
9537;DHT22;4807;48.024;11.726;2024-01-30T07:55:01;0.70;99.90
9537;DHT22;4807;48.024;11.726;2024-01-30T07:58:11;0.00;99.90
9537;DHT22;4807;48.024;11.726;2024-01-30T08:01:19;0.20;99.90
9537;DHT22;4807;48.024;11.726;2024-01-30T08:04:28;0.30;99.90
9537;DHT22;4807;48.024;11.726;2024-01-30T08:07:36;0.70;99.90
9537;DHT22;4807;48.024;11.726;2024-01-30T08:10:46;0.90;99.90
9537;DHT22;4807;48.024;11.726;2024-01-30T08:13:56;1.30;99.90
9537;DHT22;4807;48.024;11.726;2024-01-30T08:17:04;1.80;99.90
9537;DHT22;4807;48.024;11.726;2024-01-30T08:20:14;2.20;99.90
9537;DHT22;4807;48.024;11.726;2024-01-30T08:23:23;2.50;99.50
9537;DHT22;4807;48.024;11.726;2024-01-30T08:26:33;2.90;98.80
9537;DHT22;4807;48.024;11.726;2024-01-30T08:29:42;3.20;98.50
9537;DHT22;4807;48.024;11.726;2024-01-30T08:32:50;3.40;97.20
9537;DHT22;4807;48.024;11.726;2024-01-30T08:35:59;3.50;97.40
9537;DHT22;4807;48.024;11.726;2024-01-30T08:39:07;3.80;96.50
9537;DHT22;4807;48.024;11.726;2024-01-30T08:42:17;3.90;96.20
9537;DHT22;4807;48.024;11.726;2024-01-30T08:45:29;4.00;96.20
9537;DHT22;4807;48.024;11.726;2024-01-30T08:48:38;4.30;95.00
9537;DHT22;4807;48.024;11.726;2024-01-30T08:51:47;4.50;95.00
9537;DHT22;4807;48.024;11.726;2024-01-30T08:54:56;4.60;95.10
9537;DHT22;4807;48.024;11.726;2024-01-30T08:58:05;4.60;95.50
9537;DHT22;4807;48.024;11.726;2024-01-30T09:01:15;4.70;96.30
9537;DHT22;4807;48.024;11.726;2024-01-30T09:04:23;4.80;96.30
9537;DHT22;4807;48.024;11.726;2024-01-30T09:07:32;4.70;97.10
9537;DHT22;4807;48.024;11.726;2024-01-30T09:10:41;4.70;98.50
9537;DHT22;4807;48.024;11.726;2024-01-30T09:13:53;4.80;99.90
9537;DHT22;4807;48.024;11.726;2024-01-30T09:17:02;4.90;99.90
9537;DHT22;4807;48.024;11.726;2024-01-30T09:20:11;4.90;99.90
9537;DHT22;4807;48.024;11.726;2024-01-30T09:23:20;5.00;99.90
9537;DHT22;4807;48.024;11.726;2024-01-30T09:26:29;5.10;99.90
9537;DHT22;4807;48.024;11.726;2024-01-30T09:29:39;5.20;99.90
9537;DHT22;4807;48.024;11.726;2024-01-30T09:32:47;5.30;99.90
9537;DHT22;4807;48.024;11.726;2024-01-30T09:35:55;5.40;99.90
9537;DHT22;4807;48.024;11.726;2024-01-30T09:39:04;5.50;99.90
9537;DHT22;4807;48.024;11.726;2024-01-30T09:42:20;5.70;99.90
9537;DHT22;4807;48.024;11.726;2024-01-30T09:45:37;5.90;99.90
9537;DHT22;4807;48.024;11.726;2024-01-30T09:48:47;5.90;99.70
9537;DHT22;4807;48.024;11.726;2024-01-30T09:51:56;6.00;98.90
9537;DHT22;4807;48.024;11.726;2024-01-30T09:55:05;6.20;98.90
9537;DHT22;4807;48.024;11.726;2024-01-30T09:58:14;6.40;97.00
9537;DHT22;4807;48.024;11.726;2024-01-30T10:01:25;6.50;95.70
9537;DHT22;4807;48.024;11.726;2024-01-30T10:04:34;6.80;93.80
9537;DHT22;4807;48.024;11.726;2024-01-30T10:07:52;7.00;93.80
9537;DHT22;4807;48.024;11.726;2024-01-30T10:11:02;7.30;92.60
9537;DHT22;4807;48.024;11.726;2024-01-30T10:14:11;7.50;91.40
9537;DHT22;4807;48.024;11.726;2024-01-30T10:17:21;7.60;90.80
9537;DHT22;4807;48.024;11.726;2024-01-30T10:20:39;7.80;90.80
9537;DHT22;4807;48.024;11.726;2024-01-30T10:23:49;7.90;87.10
9537;DHT22;4807;48.024;11.726;2024-01-30T10:26:58;8.40;82.30
9537;DHT22;4807;48.024;11.726;2024-01-30T10:30:08;8.40;82.40
9537;DHT22;4807;48.024;11.726;2024-01-30T10:33:17;8.60;78.20
9537;DHT22;4807;48.024;11.726;2024-01-30T10:36:28;8.80;77.50
9537;DHT22;4807;48.024;11.726;2024-01-30T10:39:39;9.00;72.00
9537;DHT22;4807;48.024;11.726;2024-01-30T10:42:49;9.10;72.40
9537;DHT22;4807;48.024;11.726;2024-01-30T10:46:11;9.40;72.80
9537;DHT22;4807;48.024;11.726;2024-01-30T10:49:27;9.60;72.50
9537;DHT22;4807;48.024;11.726;2024-01-30T10:52:38;9.80;71.20
9537;DHT22;4807;48.024;11.726;2024-01-30T10:55:51;10.10;72.00
9537;DHT22;4807;48.024;11.726;2024-01-30T10:59:02;10.20;72.20
9537;DHT22;4807;48.024;11.726;2024-01-30T11:02:11;10.30;70.90
9537;DHT22;4807;48.024;11.726;2024-01-30T11:05:25;10.40;67.00
9537;DHT22;4807;48.024;11.726;2024-01-30T11:08:40;10.50;68.10
9537;DHT22;4807;48.024;11.726;2024-01-30T11:11:50;10.60;68.50
9537;DHT22;4807;48.024;11.726;2024-01-30T11:15:03;10.60;69.20
9537;DHT22;4807;48.024;11.726;2024-01-30T11:18:23;10.60;66.20
9537;DHT22;4807;48.024;11.726;2024-01-30T11:21:41;10.60;65.50
9537;DHT22;4807;48.024;11.726;2024-01-30T11:24:51;10.50;64.60
9537;DHT22;4807;48.024;11.726;2024-01-30T11:28:04;10.50;66.60
9537;DHT22;4807;48.024;11.726;2024-01-30T11:31:18;10.50;65.30
9537;DHT22;4807;48.024;11.726;2024-01-30T11:34:27;10.50;66.30
9537;DHT22;4807;48.024;11.726;2024-01-30T11:37:37;10.50;68.30
9537;DHT22;4807;48.024;11.726;2024-01-30T11:40:48;10.50;67.50
9537;DHT22;4807;48.024;11.726;2024-01-30T11:43:57;10.60;70.40
9537;DHT22;4807;48.024;11.726;2024-01-30T11:47:06;10.60;72.30
9537;DHT22;4807;48.024;11.726;2024-01-30T11:50:15;10.60;69.30
9537;DHT22;4807;48.024;11.726;2024-01-30T11:53:25;10.60;71.50
9537;DHT22;4807;48.024;11.726;2024-01-30T11:56:34;10.70;72.60
9537;DHT22;4807;48.024;11.726;2024-01-30T11:59:44;10.80;69.80
9537;DHT22;4807;48.024;11.726;2024-01-30T12:02:54;11.00;65.60
9537;DHT22;4807;48.024;11.726;2024-01-30T12:06:04;11.00;67.10
9537;DHT22;4807;48.024;11.726;2024-01-30T12:09:15;11.00;67.70
9537;DHT22;4807;48.024;11.726;2024-01-30T12:12:24;11.00;73.70
9537;DHT22;4807;48.024;11.726;2024-01-30T12:15:34;11.00;69.80
9537;DHT22;4807;48.024;11.726;2024-01-30T12:18:42;11.20;65.50
9537;DHT22;4807;48.024;11.726;2024-01-30T12:21:57;11.20;65.00
9537;DHT22;4807;48.024;11.726;2024-01-30T12:25:09;11.40;62.60
9537;DHT22;4807;48.024;11.726;2024-01-30T12:28:19;11.50;61.70
9537;DHT22;4807;48.024;11.726;2024-01-30T12:31:28;11.60;65.60
9537;DHT22;4807;48.024;11.726;2024-01-30T12:34:40;11.90;62.30
9537;DHT22;4807;48.024;11.726;2024-01-30T12:38:06;12.10;63.80
9537;DHT22;4807;48.024;11.726;2024-01-30T12:41:17;12.20;62.20
9537;DHT22;4807;48.024;11.726;2024-01-30T12:44:28;12.20;60.00
9537;DHT22;4807;48.024;11.726;2024-01-30T12:47:38;12.20;60.00
9537;DHT22;4807;48.024;11.726;2024-01-30T12:50:51;12.10;60.20
9537;DHT22;4807;48.024;11.726;2024-01-30T12:54:04;12.10;63.20
9537;DHT22;4807;48.024;11.726;2024-01-30T12:57:15;12.20;61.80
9537;DHT22;4807;48.024;11.726;2024-01-30T13:00:25;12.20;62.30
9537;DHT22;4807;48.024;11.726;2024-01-30T13:03:34;12.30;62.30
9537;DHT22;4807;48.024;11.726;2024-01-30T13:06:45;12.40;60.00
9537;DHT22;4807;48.024;11.726;2024-01-30T13:09:55;12.40;60.80
9537;DHT22;4807;48.024;11.726;2024-01-30T13:13:11;12.30;61.20
9537;DHT22;4807;48.024;11.726;2024-01-30T13:16:26;12.40;58.10
9537;DHT22;4807;48.024;11.726;2024-01-30T13:19:35;12.40;58.50
9537;DHT22;4807;48.024;11.726;2024-01-30T13:22:43;12.30;58.00
9537;DHT22;4807;48.024;11.726;2024-01-30T13:25:53;12.30;58.20
9537;DHT22;4807;48.024;11.726;2024-01-30T13:29:06;12.30;57.10
9537;DHT22;4807;48.024;11.726;2024-01-30T13:32:14;12.30;56.30
9537;DHT22;4807;48.024;11.726;2024-01-30T13:35:23;12.30;55.90
9537;DHT22;4807;48.024;11.726;2024-01-30T13:38:31;12.30;55.60
9537;DHT22;4807;48.024;11.726;2024-01-30T13:41:41;12.30;56.50
9537;DHT22;4807;48.024;11.726;2024-01-30T13:44:52;12.40;57.90
9537;DHT22;4807;48.024;11.726;2024-01-30T13:48:00;12.40;56.50
9537;DHT22;4807;48.024;11.726;2024-01-30T13:51:11;12.50;56.40
9537;DHT22;4807;48.024;11.726;2024-01-30T13:54:20;12.50;56.10
9537;DHT22;4807;48.024;11.726;2024-01-30T13:57:28;12.60;55.50
9537;DHT22;4807;48.024;11.726;2024-01-30T14:00:41;12.50;56.10
9537;DHT22;4807;48.024;11.726;2024-01-30T14:03:50;12.50;55.70
9537;DHT22;4807;48.024;11.726;2024-01-30T14:06:59;12.40;57.30
9537;DHT22;4807;48.024;11.726;2024-01-30T14:10:12;12.40;56.60
9537;DHT22;4807;48.024;11.726;2024-01-30T14:13:22;12.30;57.50
9537;DHT22;4807;48.024;11.726;2024-01-30T14:16:33;12.30;57.20
9537;DHT22;4807;48.024;11.726;2024-01-30T14:19:42;12.20;56.70
9537;DHT22;4807;48.024;11.726;2024-01-30T14:22:50;12.20;57.00
9537;DHT22;4807;48.024;11.726;2024-01-30T14:26:00;12.20;58.50
9537;DHT22;4807;48.024;11.726;2024-01-30T14:29:09;12.10;59.80
9537;DHT22;4807;48.024;11.726;2024-01-30T14:32:19;12.00;65.00
9537;DHT22;4807;48.024;11.726;2024-01-30T14:35:27;12.00;58.00
9537;DHT22;4807;48.024;11.726;2024-01-30T14:38:36;12.00;59.70
9537;DHT22;4807;48.024;11.726;2024-01-30T14:41:44;11.90;60.50
9537;DHT22;4807;48.024;11.726;2024-01-30T14:44:53;11.80;62.40
9537;DHT22;4807;48.024;11.726;2024-01-30T14:48:03;11.70;63.30
9537;DHT22;4807;48.024;11.726;2024-01-30T14:51:12;11.60;61.60
9537;DHT22;4807;48.024;11.726;2024-01-30T14:54:20;11.50;62.60
9537;DHT22;4807;48.024;11.726;2024-01-30T14:57:28;11.50;62.60
9537;DHT22;4807;48.024;11.726;2024-01-30T15:00:37;11.40;63.90
9537;DHT22;4807;48.024;11.726;2024-01-30T15:03:48;11.30;62.50
9537;DHT22;4807;48.024;11.726;2024-01-30T15:06:58;11.30;61.30
9537;DHT22;4807;48.024;11.726;2024-01-30T15:10:08;11.30;63.00
9537;DHT22;4807;48.024;11.726;2024-01-30T15:13:17;11.10;61.90
9537;DHT22;4807;48.024;11.726;2024-01-30T15:16:26;11.10;62.10
9537;DHT22;4807;48.024;11.726;2024-01-30T15:19:36;11.10;63.40
9537;DHT22;4807;48.024;11.726;2024-01-30T15:22:44;10.80;67.20
9537;DHT22;4807;48.024;11.726;2024-01-30T15:25:53;10.70;64.80
9537;DHT22;4807;48.024;11.726;2024-01-30T15:29:01;10.70;66.30
9537;DHT22;4807;48.024;11.726;2024-01-30T15:32:10;10.70;70.40
9537;DHT22;4807;48.024;11.726;2024-01-30T15:35:20;10.30;73.10
9537;DHT22;4807;48.024;11.726;2024-01-30T15:38:29;10.00;74.10
9537;DHT22;4807;48.024;11.726;2024-01-30T15:41:38;9.90;74.70
9537;DHT22;4807;48.024;11.726;2024-01-30T15:44:46;9.70;74.40
9537;DHT22;4807;48.024;11.726;2024-01-30T15:47:55;9.70;74.90
9537;DHT22;4807;48.024;11.726;2024-01-30T15:51:06;9.60;75.60
9537;DHT22;4807;48.024;11.726;2024-01-30T15:54:15;9.30;76.70
9537;DHT22;4807;48.024;11.726;2024-01-30T15:57:24;8.90;78.40
9537;DHT22;4807;48.024;11.726;2024-01-30T16:00:35;8.40;80.60
9537;DHT22;4807;48.024;11.726;2024-01-30T16:03:44;7.90;82.40
9537;DHT22;4807;48.024;11.726;2024-01-30T16:06:54;7.60;83.40
9537;DHT22;4807;48.024;11.726;2024-01-30T16:10:02;7.20;84.00
9537;DHT22;4807;48.024;11.726;2024-01-30T16:13:11;6.90;85.00
9537;DHT22;4807;48.024;11.726;2024-01-30T16:16:20;6.70;86.20
9537;DHT22;4807;48.024;11.726;2024-01-30T16:19:29;6.50;87.80
9537;DHT22;4807;48.024;11.726;2024-01-30T16:22:41;6.20;89.10
9537;DHT22;4807;48.024;11.726;2024-01-30T16:25:49;6.00;89.80
9537;DHT22;4807;48.024;11.726;2024-01-30T16:28:58;5.80;90.30
9537;DHT22;4807;48.024;11.726;2024-01-30T16:32:06;5.80;90.40
9537;DHT22;4807;48.024;11.726;2024-01-30T16:35:15;5.90;90.20
9537;DHT22;4807;48.024;11.726;2024-01-30T16:38:25;5.70;90.30
9537;DHT22;4807;48.024;11.726;2024-01-30T16:41:33;5.50;90.60
9537;DHT22;4807;48.024;11.726;2024-01-30T16:44:43;5.70;90.40
9537;DHT22;4807;48.024;11.726;2024-01-30T16:47:52;5.60;90.90
9537;DHT22;4807;48.024;11.726;2024-01-30T16:51:01;5.20;91.20
9537;DHT22;4807;48.024;11.726;2024-01-30T16:54:10;4.90;91.80
9537;DHT22;4807;48.024;11.726;2024-01-30T16:57:19;4.60;92.20
9537;DHT22;4807;48.024;11.726;2024-01-30T17:00:27;4.40;92.60
9537;DHT22;4807;48.024;11.726;2024-01-30T17:03:35;4.20;93.00
9537;DHT22;4807;48.024;11.726;2024-01-30T17:06:44;4.10;93.40
9537;DHT22;4807;48.024;11.726;2024-01-30T17:09:54;4.00;93.50
9537;DHT22;4807;48.024;11.726;2024-01-30T17:13:03;4.00;93.50
9537;DHT22;4807;48.024;11.726;2024-01-30T17:16:12;3.90;93.40
9537;DHT22;4807;48.024;11.726;2024-01-30T17:19:22;3.80;93.50
9537;DHT22;4807;48.024;11.726;2024-01-30T17:22:31;3.70;93.40
9537;DHT22;4807;48.024;11.726;2024-01-30T17:25:41;3.70;93.30
9537;DHT22;4807;48.024;11.726;2024-01-30T17:28:50;3.60;93.40
9537;DHT22;4807;48.024;11.726;2024-01-30T17:31:58;3.50;93.50
9537;DHT22;4807;48.024;11.726;2024-01-30T17:35:07;3.50;93.70
9537;DHT22;4807;48.024;11.726;2024-01-30T17:38:16;3.50;93.70
9537;DHT22;4807;48.024;11.726;2024-01-30T17:41:27;3.60;93.60
9537;DHT22;4807;48.024;11.726;2024-01-30T17:44:36;3.50;93.90
9537;DHT22;4807;48.024;11.726;2024-01-30T17:47:47;3.40;94.10
9537;DHT22;4807;48.024;11.726;2024-01-30T17:50:55;3.20;94.30
9537;DHT22;4807;48.024;11.726;2024-01-30T17:54:04;3.00;94.60
9537;DHT22;4807;48.024;11.726;2024-01-30T17:57:14;2.90;95.00
9537;DHT22;4807;48.024;11.726;2024-01-30T18:00:24;2.80;95.20
9537;DHT22;4807;48.024;11.726;2024-01-30T18:03:32;2.70;95.30
9537;DHT22;4807;48.024;11.726;2024-01-30T18:06:40;2.80;95.90
9537;DHT22;4807;48.024;11.726;2024-01-30T18:09:49;2.90;95.40
9537;DHT22;4807;48.024;11.726;2024-01-30T18:12:59;2.80;95.90
9537;DHT22;4807;48.024;11.726;2024-01-30T18:16:08;4.60;96.30
9537;DHT22;4807;48.024;11.726;2024-01-30T18:19:16;2.80;96.00
9537;DHT22;4807;48.024;11.726;2024-01-30T18:22:25;2.80;95.90
9537;DHT22;4807;48.024;11.726;2024-01-30T18:25:34;2.80;95.80
9537;DHT22;4807;48.024;11.726;2024-01-30T18:28:48;2.70;96.00
9537;DHT22;4807;48.024;11.726;2024-01-30T18:31:58;2.80;96.10
9537;DHT22;4807;48.024;11.726;2024-01-30T18:35:07;2.50;96.00
9537;DHT22;4807;48.024;11.726;2024-01-30T18:38:15;2.50;96.40
9537;DHT22;4807;48.024;11.726;2024-01-30T18:41:24;2.30;96.90
9537;DHT22;4807;48.024;11.726;2024-01-30T18:44:34;2.50;97.00
9537;DHT22;4807;48.024;11.726;2024-01-30T18:47:42;2.30;96.70
9537;DHT22;4807;48.024;11.726;2024-01-30T18:50:51;2.30;97.10
9537;DHT22;4807;48.024;11.726;2024-01-30T18:53:59;2.20;97.30
9537;DHT22;4807;48.024;11.726;2024-01-30T18:57:07;2.10;97.40
9537;DHT22;4807;48.024;11.726;2024-01-30T19:00:18;1.90;97.70
9537;DHT22;4807;48.024;11.726;2024-01-30T19:03:26;1.80;98.10
9537;DHT22;4807;48.024;11.726;2024-01-30T19:06:37;1.80;98.50
9537;DHT22;4807;48.024;11.726;2024-01-30T19:09:46;1.80;98.70
9537;DHT22;4807;48.024;11.726;2024-01-30T19:12:55;1.80;98.70
9537;DHT22;4807;48.024;11.726;2024-01-30T19:16:07;1.70;99.00
9537;DHT22;4807;48.024;11.726;2024-01-30T19:19:16;1.70;99.00
9537;DHT22;4807;48.024;11.726;2024-01-30T19:22:25;1.70;99.40
9537;DHT22;4807;48.024;11.726;2024-01-30T19:25:33;1.80;99.70
9537;DHT22;4807;48.024;11.726;2024-01-30T19:28:46;1.90;99.50
9537;DHT22;4807;48.024;11.726;2024-01-30T19:31:57;1.80;99.60
9537;DHT22;4807;48.024;11.726;2024-01-30T19:35:06;2.00;99.50
9537;DHT22;4807;48.024;11.726;2024-01-30T19:38:15;1.90;99.60
9537;DHT22;4807;48.024;11.726;2024-01-30T19:41:23;1.90;99.90
9537;DHT22;4807;48.024;11.726;2024-01-30T19:44:32;1.80;99.90
9537;DHT22;4807;48.024;11.726;2024-01-30T19:47:42;1.70;99.90
9537;DHT22;4807;48.024;11.726;2024-01-30T19:50:50;1.70;99.90
9537;DHT22;4807;48.024;11.726;2024-01-30T19:54:01;1.80;99.90
9537;DHT22;4807;48.024;11.726;2024-01-30T19:57:10;1.90;99.90
9537;DHT22;4807;48.024;11.726;2024-01-30T20:00:19;1.90;99.90
9537;DHT22;4807;48.024;11.726;2024-01-30T20:03:30;1.90;99.90
9537;DHT22;4807;48.024;11.726;2024-01-30T20:06:42;1.90;99.60
9537;DHT22;4807;48.024;11.726;2024-01-30T20:09:53;1.90;99.90
9537;DHT22;4807;48.024;11.726;2024-01-30T20:13:05;1.90;99.90
9537;DHT22;4807;48.024;11.726;2024-01-30T20:16:18;2.00;99.60
9537;DHT22;4807;48.024;11.726;2024-01-30T20:19:28;1.90;99.50
9537;DHT22;4807;48.024;11.726;2024-01-30T20:22:37;2.10;98.90
9537;DHT22;4807;48.024;11.726;2024-01-30T20:25:48;2.10;98.50